createdAt,value
2023-04-21T00:02:43.451Z,100935.25
2023-04-21T00:08:05.408Z,100925.00
2023-04-21T00:13:27.203Z,100928.31
2023-04-21T00:18:49.239Z,100928.44
2023-04-21T00:24:11.396Z,100919.16
2023-04-21T00:29:33.257Z,100924.47
2023-04-21T00:34:55.101Z,100924.72
2023-04-21T00:40:17.080Z,100917.91
2023-04-21T00:45:38.892Z,100926.69
2023-04-21T00:51:00.771Z,100915.63
2023-04-21T00:56:23.313Z,100919.19
2023-04-21T01:01:45.257Z,100913.53
2023-04-21T01:07:07.125Z,100905.28
2023-04-21T01:12:29.052Z,100915.63
2023-04-21T01:17:50.868Z,100925.31
2023-04-21T01:23:12.737Z,100914.06
2023-04-21T01:28:34.730Z,100909.13
2023-04-21T01:33:56.577Z,100915.41
2023-04-21T01:39:18.528Z,100908.53
2023-04-21T01:44:40.499Z,100902.56
2023-04-21T01:50:02.345Z,100917.94
2023-04-21T01:55:24.955Z,100918.09
2023-04-21T02:00:46.851Z,100915.88
2023-04-21T02:06:08.767Z,100919.31
2023-04-21T02:11:30.634Z,100915.78
2023-04-21T02:16:53.126Z,100914.97
2023-04-21T02:22:15.049Z,100914.31
2023-04-21T02:27:36.949Z,100916.00
2023-04-21T02:32:58.893Z,100916.97
2023-04-21T02:38:20.873Z,100925.50
2023-04-21T02:43:42.712Z,100919.53
2023-04-21T02:49:04.564Z,100911.91
2023-04-21T02:54:26.394Z,100909.34
2023-04-21T02:59:48.241Z,100894.06
2023-04-21T03:05:10.399Z,100900.94
2023-04-21T03:10:32.244Z,100907.00
2023-04-21T03:15:54.104Z,100906.19
2023-04-21T03:21:15.996Z,100908.81
2023-04-21T03:26:39.563Z,100905.63
2023-04-21T03:32:01.614Z,100908.84
2023-04-21T03:37:23.552Z,100915.63
2023-04-21T03:42:45.424Z,100918.16
2023-04-21T03:48:07.309Z,100918.97
2023-04-21T03:53:29.280Z,100923.84
2023-04-21T03:58:51.305Z,100920.72
2023-04-21T04:04:13.404Z,100923.28
2023-04-21T04:09:35.643Z,100927.34
2023-04-21T04:14:57.525Z,100930.84
2023-04-21T04:20:19.426Z,100926.53
2023-04-21T04:25:41.332Z,100927.91
2023-04-21T04:31:03.322Z,100933.81
2023-04-21T04:36:25.247Z,100948.81
2023-04-21T04:41:47.202Z,100946.91
2023-04-21T04:47:09.188Z,100938.00
2023-04-21T04:52:31.442Z,100944.31
2023-04-21T04:57:53.343Z,100947.53
2023-04-21T05:03:15.416Z,100944.28
2023-04-21T05:08:37.429Z,100938.69
2023-04-21T05:13:59.298Z,100928.50
2023-04-21T05:19:21.155Z,100943.78
2023-04-21T05:24:42.985Z,100939.88
2023-04-21T05:30:05.237Z,100935.13
2023-04-21T05:35:27.126Z,100940.53
2023-04-21T05:40:55.857Z,100944.53
2023-04-21T05:46:17.802Z,100925.56
2023-04-21T05:51:39.684Z,100936.72
2023-04-21T05:57:01.526Z,100933.13
2023-04-21T06:02:23.512Z,100930.00
2023-04-21T06:07:45.468Z,100925.13
2023-04-21T06:13:07.367Z,100918.81
2023-04-21T06:18:29.312Z,100926.31
2023-04-21T06:23:51.839Z,100915.75
2023-04-21T06:29:13.735Z,100916.66
2023-04-21T06:34:35.631Z,100903.97
2023-04-21T06:39:57.556Z,100911.25
2023-04-21T06:45:19.469Z,100900.19
2023-04-21T06:50:41.445Z,100904.50
2023-04-21T06:56:03.733Z,100900.03
2023-04-21T07:01:25.597Z,100896.31
2023-04-21T07:06:47.951Z,100903.28
2023-04-21T07:12:09.791Z,100898.25
2023-04-21T07:17:31.784Z,100899.41
2023-04-21T07:22:53.732Z,100900.34
2023-04-21T07:28:15.565Z,100902.38
2023-04-21T07:33:37.402Z,100906.44
2023-04-21T07:38:59.231Z,100897.75
2023-04-21T07:44:21.115Z,100901.00
2023-04-21T07:49:42.977Z,100881.28
2023-04-21T07:55:05.058Z,100888.69
2023-04-21T08:00:26.911Z,100883.03
2023-04-21T08:05:48.945Z,100888.06
2023-04-21T08:11:11.209Z,100873.53
2023-04-21T08:16:33.222Z,100882.94
2023-04-21T08:21:55.281Z,100883.72
2023-04-21T08:27:17.241Z,100875.03
2023-04-21T08:32:39.128Z,100883.78
2023-04-21T08:38:01.063Z,100860.81
2023-04-21T08:43:22.923Z,100860.56
2023-04-21T08:48:46.804Z,100868.34
2023-04-21T08:54:08.893Z,100856.91
2023-04-21T08:59:31.111Z,100866.63
2023-04-21T09:04:53.302Z,100867.69
2023-04-21T09:10:21.955Z,100857.72
2023-04-21T09:15:46.909Z,100859.91
2023-04-21T09:21:10.805Z,100852.34
2023-04-21T09:26:32.662Z,100847.72
2023-04-21T09:31:54.670Z,100843.84
2023-04-21T09:37:18.188Z,100845.94
2023-04-21T09:42:43.120Z,100834.13
2023-04-21T09:48:10.163Z,100833.09
2023-04-21T09:53:34.603Z,100809.72
2023-04-21T09:58:59.359Z,100841.47
2023-04-21T10:04:22.111Z,100819.09
2023-04-21T10:09:59.150Z,100818.41
2023-04-21T10:15:30.029Z,100822.78
2023-04-21T10:21:12.180Z,100809.19
2023-04-21T10:26:35.356Z,100787.63
2023-04-21T10:31:57.411Z,100784.28
2023-04-21T10:37:19.495Z,100789.31
2023-04-21T10:42:41.353Z,100768.97
2023-04-21T10:48:13.604Z,100781.16
2023-04-21T10:53:43.458Z,100768.00
2023-04-21T10:59:05.375Z,100763.19
2023-04-21T11:04:28.004Z,100765.66
2023-04-21T11:10:02.119Z,100761.97
2023-04-21T11:15:24.089Z,100755.38
2023-04-21T11:20:45.978Z,100754.94
2023-04-21T11:26:08.250Z,100730.88
2023-04-21T11:31:30.493Z,100737.16
2023-04-21T11:36:52.805Z,100717.00
2023-04-21T11:42:21.433Z,100700.41
2023-04-21T11:47:43.340Z,100724.69
2023-04-21T11:53:06.500Z,100697.75
2023-04-21T11:58:28.508Z,100712.91
2023-04-21T12:03:55.200Z,100698.56
2023-04-21T12:09:20.094Z,100688.00
2023-04-21T12:14:44.919Z,100689.56
2023-04-21T12:20:07.634Z,100677.41
2023-04-21T12:25:29.498Z,100664.81
2023-04-21T12:30:51.351Z,100670.69
2023-04-21T12:36:13.287Z,100655.47
2023-04-21T12:41:35.148Z,100644.44
2023-04-21T12:46:57.802Z,100634.44
2023-04-21T12:52:19.804Z,100639.03
2023-04-21T12:57:41.827Z,100641.91
2023-04-21T13:03:03.923Z,100651.16
2023-04-21T13:08:26.059Z,100637.91
2023-04-21T13:13:47.964Z,100631.53
2023-04-21T13:19:09.948Z,100613.81
2023-04-21T13:24:31.887Z,100612.88
2023-04-21T13:29:54.054Z,100596.00
2023-04-21T13:35:15.994Z,100593.63
2023-04-21T13:40:37.890Z,100601.13
2023-04-21T13:46:00.031Z,100593.41
2023-04-21T13:51:22.143Z,100587.09
2023-04-21T13:56:44.057Z,100588.06
2023-04-21T14:02:06.022Z,100571.50
2023-04-21T14:07:27.996Z,100563.63
2023-04-21T14:12:49.859Z,100566.63
2023-04-21T14:18:11.825Z,100567.09
2023-04-21T14:23:33.800Z,100559.84
2023-04-21T14:28:55.639Z,100553.03
2023-04-21T14:34:17.472Z,100547.78
2023-04-21T14:39:39.324Z,100547.88
2023-04-21T14:45:01.264Z,100540.16
2023-04-21T14:50:23.236Z,100522.31
2023-04-21T14:55:45.103Z,100520.16
2023-04-21T15:01:07.006Z,100523.72
2023-04-21T15:06:28.997Z,100518.69
2023-04-21T15:11:50.866Z,100508.38
2023-04-21T15:17:12.823Z,100507.84
2023-04-21T15:22:34.777Z,100516.03
2023-04-21T15:27:56.718Z,100514.19
2023-04-21T15:33:18.811Z,100501.41
2023-04-21T15:38:40.713Z,100497.13
2023-04-21T15:44:02.623Z,100481.38
2023-04-21T15:49:33.457Z,100493.63
2023-04-21T15:54:55.550Z,100488.56
2023-04-21T16:00:17.660Z,100484.25
2023-04-21T16:05:39.711Z,100482.69
2023-04-21T16:11:01.786Z,100494.50
2023-04-21T16:16:23.737Z,100489.28
2023-04-21T16:21:45.830Z,100489.19
2023-04-21T16:27:07.800Z,100488.53
2023-04-21T16:32:29.744Z,100478.63
2023-04-21T16:37:51.801Z,100487.38
2023-04-21T16:43:13.677Z,100484.56
2023-04-21T16:48:35.766Z,100487.56
2023-04-21T16:53:57.648Z,100487.94
2023-04-21T16:59:19.511Z,100486.22
2023-04-21T17:04:41.436Z,100480.34
2023-04-21T17:10:03.498Z,100489.09
2023-04-21T17:15:25.431Z,100486.16
2023-04-21T17:20:47.401Z,100487.88
2023-04-21T17:26:10.857Z,100490.50
2023-04-21T17:31:34.922Z,100491.06
2023-04-21T17:36:56.928Z,100484.00
2023-04-21T17:42:18.776Z,100492.75
2023-04-21T17:47:40.662Z,100492.88
2023-04-21T17:53:02.559Z,100506.47
2023-04-21T17:58:27.739Z,100497.09
2023-04-21T18:03:49.769Z,100506.72
2023-04-21T18:09:11.866Z,100509.25
2023-04-21T18:14:33.731Z,100504.44
2023-04-21T18:19:55.527Z,100501.53
2023-04-21T18:25:27.344Z,100495.31
2023-04-21T18:31:00.204Z,100497.69
2023-04-21T18:36:22.366Z,100499.69
2023-04-21T18:41:44.433Z,100497.38
2023-04-21T18:47:06.430Z,100501.22
2023-04-21T18:52:28.372Z,100496.34
2023-04-21T18:57:50.349Z,100496.53
2023-04-21T19:03:12.466Z,100497.69
2023-04-21T19:08:42.170Z,100497.28
2023-04-21T19:14:04.752Z,100494.75
2023-04-21T19:19:26.791Z,100497.56
2023-04-21T19:24:48.614Z,100501.44
2023-04-21T19:30:10.780Z,100486.28
2023-04-21T19:35:32.691Z,100490.78
2023-04-21T19:40:57.083Z,100489.75
2023-04-21T19:46:19.020Z,100492.06
2023-04-21T19:51:40.925Z,100497.88
2023-04-21T19:57:03.206Z,100492.44
2023-04-21T20:02:25.117Z,100500.72
2023-04-21T20:07:47.004Z,100506.50
2023-04-21T20:13:08.921Z,100511.19
2023-04-21T20:18:30.835Z,100507.41
2023-04-21T20:23:52.685Z,100512.53
2023-04-21T20:29:14.761Z,100512.06
2023-04-21T20:34:36.641Z,100510.44
2023-04-21T20:39:58.506Z,100512.97
2023-04-21T20:45:20.305Z,100511.66
2023-04-21T20:50:44.023Z,100517.22
2023-04-21T20:56:07.686Z,100511.94
2023-04-21T21:01:30.728Z,100514.47
2023-04-21T21:06:52.772Z,100511.94
2023-04-21T21:12:14.610Z,100518.94
2023-04-21T21:17:36.516Z,100508.59
2023-04-21T21:22:58.389Z,100500.66
2023-04-21T21:28:20.253Z,100497.47
2023-04-21T21:33:42.190Z,100505.47
2023-04-21T21:39:04.110Z,100498.63
2023-04-21T21:44:25.973Z,100497.25
2023-04-21T21:49:48.295Z,100507.72
2023-04-21T21:55:10.217Z,100508.91
2023-04-21T22:00:32.087Z,100511.78
2023-04-21T22:05:53.972Z,100503.38
2023-04-21T22:11:15.881Z,100507.44
2023-04-21T22:16:38.077Z,100511.81
2023-04-21T22:22:00.221Z,100505.53
2023-04-21T22:27:22.224Z,100495.66
2023-04-21T22:32:44.136Z,100499.78
2023-04-21T22:38:06.286Z,100504.38
2023-04-21T22:43:28.165Z,100492.53
2023-04-21T22:48:50.148Z,100508.44
2023-04-21T22:54:11.966Z,100505.66
2023-04-21T22:59:34.398Z,100500.72
2023-04-21T23:04:56.338Z,100499.38
2023-04-21T23:10:18.507Z,100498.78
2023-04-21T23:15:40.453Z,100503.31
2023-04-21T23:21:02.418Z,100502.72
2023-04-21T23:26:24.280Z,100496.25
2023-04-21T23:31:46.241Z,100499.97
2023-04-21T23:37:08.117Z,100501.00
2023-04-21T23:42:30.112Z,100503.84
2023-04-21T23:47:52.196Z,100499.53
2023-04-21T23:53:14.087Z,100492.97
2023-04-21T23:58:35.926Z,100497.38
